sensor_id;sensor_type;location;lat;lon;timestamp;P1;durP1;ratioP1;P2;durP2;ratioP2
73650;SDS011;61944;52.538;6.108;2023-04-16T00:01:47;57.75;;;17.88;;
73650;SDS011;61944;52.538;6.108;2023-04-16T00:04:12;65.93;;;19.80;;
73650;SDS011;61944;52.538;6.108;2023-04-16T00:06:37;48.08;;;18.63;;
73650;SDS011;61944;52.538;6.108;2023-04-16T00:09:03;59.60;;;21.05;;
73650;SDS011;61944;52.538;6.108;2023-04-16T00:11:28;52.90;;;19.38;;
73650;SDS011;61944;52.538;6.108;2023-04-16T00:13:54;52.67;;;17.85;;
73650;SDS011;61944;52.538;6.108;2023-04-16T00:16:19;54.65;;;19.70;;
73650;SDS011;61944;52.538;6.108;2023-04-16T00:18:44;56.25;;;21.15;;
73650;SDS011;61944;52.538;6.108;2023-04-16T00:21:10;46.42;;;18.00;;
73650;SDS011;61944;52.538;6.108;2023-04-16T00:23:36;50.58;;;16.40;;
73650;SDS011;61944;52.538;6.108;2023-04-16T00:26:02;52.25;;;19.17;;
73650;SDS011;61944;52.538;6.108;2023-04-16T00:28:27;60.08;;;21.30;;
73650;SDS011;61944;52.538;6.108;2023-04-16T00:30:53;46.17;;;18.48;;
73650;SDS011;61944;52.538;6.108;2023-04-16T00:33:19;45.28;;;20.02;;
73650;SDS011;61944;52.538;6.108;2023-04-16T00:35:47;61.05;;;23.60;;
73650;SDS011;61944;52.538;6.108;2023-04-16T00:38:13;59.03;;;19.73;;
73650;SDS011;61944;52.538;6.108;2023-04-16T00:40:38;61.25;;;19.42;;
73650;SDS011;61944;52.538;6.108;2023-04-16T00:43:04;61.17;;;20.13;;
73650;SDS011;61944;52.538;6.108;2023-04-16T00:45:29;52.55;;;18.23;;
73650;SDS011;61944;52.538;6.108;2023-04-16T00:47:55;49.28;;;19.02;;
73650;SDS011;61944;52.538;6.108;2023-04-16T00:50:22;52.88;;;20.00;;
73650;SDS011;61944;52.538;6.108;2023-04-16T00:52:47;51.53;;;19.88;;
73650;SDS011;61944;52.538;6.108;2023-04-16T00:55:13;53.15;;;21.75;;
73650;SDS011;61944;52.538;6.108;2023-04-16T00:57:39;58.50;;;21.98;;
73650;SDS011;61944;52.538;6.108;2023-04-16T01:00:05;75.13;;;23.83;;
73650;SDS011;61944;52.538;6.108;2023-04-16T01:02:32;69.82;;;23.92;;
73650;SDS011;61944;52.538;6.108;2023-04-16T01:04:58;59.95;;;23.02;;
73650;SDS011;61944;52.538;6.108;2023-04-16T01:07:25;58.10;;;21.30;;
73650;SDS011;61944;52.538;6.108;2023-04-16T01:09:50;53.58;;;22.88;;
73650;SDS011;61944;52.538;6.108;2023-04-16T01:12:15;63.10;;;22.30;;
73650;SDS011;61944;52.538;6.108;2023-04-16T01:14:41;53.65;;;22.20;;
73650;SDS011;61944;52.538;6.108;2023-04-16T01:17:06;68.22;;;21.40;;
73650;SDS011;61944;52.538;6.108;2023-04-16T01:19:32;57.03;;;23.98;;
73650;SDS011;61944;52.538;6.108;2023-04-16T01:22:00;55.10;;;22.63;;
73650;SDS011;61944;52.538;6.108;2023-04-16T01:24:26;66.93;;;24.63;;
73650;SDS011;61944;52.538;6.108;2023-04-16T01:26:52;74.90;;;27.20;;
73650;SDS011;61944;52.538;6.108;2023-04-16T01:29:17;63.47;;;24.77;;
73650;SDS011;61944;52.538;6.108;2023-04-16T01:31:43;65.53;;;21.30;;
73650;SDS011;61944;52.538;6.108;2023-04-16T01:34:10;61.67;;;24.05;;
73650;SDS011;61944;52.538;6.108;2023-04-16T01:36:36;60.15;;;22.17;;
73650;SDS011;61944;52.538;6.108;2023-04-16T01:39:01;68.95;;;22.90;;
73650;SDS011;61944;52.538;6.108;2023-04-16T01:41:27;67.53;;;24.85;;
73650;SDS011;61944;52.538;6.108;2023-04-16T01:43:52;66.57;;;25.05;;
73650;SDS011;61944;52.538;6.108;2023-04-16T01:46:26;71.38;;;26.75;;
73650;SDS011;61944;52.538;6.108;2023-04-16T01:48:53;75.50;;;26.30;;
73650;SDS011;61944;52.538;6.108;2023-04-16T01:51:19;65.13;;;24.38;;
73650;SDS011;61944;52.538;6.108;2023-04-16T01:53:45;62.70;;;24.42;;
73650;SDS011;61944;52.538;6.108;2023-04-16T01:56:11;73.00;;;29.67;;
73650;SDS011;61944;52.538;6.108;2023-04-16T01:58:36;62.25;;;24.23;;
73650;SDS011;61944;52.538;6.108;2023-04-16T02:01:02;66.38;;;28.15;;
73650;SDS011;61944;52.538;6.108;2023-04-16T02:03:29;71.22;;;26.08;;
73650;SDS011;61944;52.538;6.108;2023-04-16T02:05:55;68.50;;;26.92;;
73650;SDS011;61944;52.538;6.108;2023-04-16T02:08:20;69.88;;;26.42;;
73650;SDS011;61944;52.538;6.108;2023-04-16T02:10:46;61.30;;;24.98;;
73650;SDS011;61944;52.538;6.108;2023-04-16T02:13:13;67.13;;;25.13;;
73650;SDS011;61944;52.538;6.108;2023-04-16T02:15:43;65.68;;;26.52;;
73650;SDS011;61944;52.538;6.108;2023-04-16T02:18:12;78.78;;;27.02;;
73650;SDS011;61944;52.538;6.108;2023-04-16T02:20:44;64.78;;;25.08;;
73650;SDS011;61944;52.538;6.108;2023-04-16T02:23:11;74.80;;;26.77;;
73650;SDS011;61944;52.538;6.108;2023-04-16T02:25:42;66.13;;;24.17;;
73650;SDS011;61944;52.538;6.108;2023-04-16T02:28:09;76.70;;;27.45;;
73650;SDS011;61944;52.538;6.108;2023-04-16T02:30:36;64.50;;;25.48;;
73650;SDS011;61944;52.538;6.108;2023-04-16T02:33:02;80.65;;;30.38;;
73650;SDS011;61944;52.538;6.108;2023-04-16T02:35:29;67.05;;;25.52;;
73650;SDS011;61944;52.538;6.108;2023-04-16T02:37:56;69.05;;;25.00;;
73650;SDS011;61944;52.538;6.108;2023-04-16T02:40:22;78.00;;;25.45;;
73650;SDS011;61944;52.538;6.108;2023-04-16T02:42:47;64.32;;;27.77;;
73650;SDS011;61944;52.538;6.108;2023-04-16T02:45:13;52.53;;;22.73;;
73650;SDS011;61944;52.538;6.108;2023-04-16T02:47:38;62.03;;;25.05;;
73650;SDS011;61944;52.538;6.108;2023-04-16T02:50:03;71.18;;;25.48;;
73650;SDS011;61944;52.538;6.108;2023-04-16T02:52:30;62.47;;;26.88;;
73650;SDS011;61944;52.538;6.108;2023-04-16T02:54:56;57.22;;;24.38;;
73650;SDS011;61944;52.538;6.108;2023-04-16T02:57:22;57.13;;;24.33;;
73650;SDS011;61944;52.538;6.108;2023-04-16T02:59:47;52.90;;;25.02;;
73650;SDS011;61944;52.538;6.108;2023-04-16T03:02:13;63.22;;;23.98;;
73650;SDS011;61944;52.538;6.108;2023-04-16T03:04:38;62.10;;;24.25;;
73650;SDS011;61944;52.538;6.108;2023-04-16T03:07:04;63.05;;;24.40;;
73650;SDS011;61944;52.538;6.108;2023-04-16T03:09:29;58.78;;;22.40;;
73650;SDS011;61944;52.538;6.108;2023-04-16T03:11:55;63.25;;;26.25;;
73650;SDS011;61944;52.538;6.108;2023-04-16T03:14:20;59.95;;;24.88;;
73650;SDS011;61944;52.538;6.108;2023-04-16T03:16:46;67.80;;;25.98;;
73650;SDS011;61944;52.538;6.108;2023-04-16T03:19:11;71.38;;;25.90;;
73650;SDS011;61944;52.538;6.108;2023-04-16T03:21:36;61.08;;;25.80;;
73650;SDS011;61944;52.538;6.108;2023-04-16T03:24:02;60.50;;;24.15;;
73650;SDS011;61944;52.538;6.108;2023-04-16T03:26:27;68.45;;;27.05;;
73650;SDS011;61944;52.538;6.108;2023-04-16T03:28:53;66.13;;;26.98;;
73650;SDS011;61944;52.538;6.108;2023-04-16T03:31:18;64.43;;;27.42;;
73650;SDS011;61944;52.538;6.108;2023-04-16T03:33:43;62.97;;;26.05;;
73650;SDS011;61944;52.538;6.108;2023-04-16T03:36:08;64.78;;;26.88;;
73650;SDS011;61944;52.538;6.108;2023-04-16T03:38:34;61.63;;;23.88;;
73650;SDS011;61944;52.538;6.108;2023-04-16T03:41:00;61.45;;;25.98;;
73650;SDS011;61944;52.538;6.108;2023-04-16T03:43:26;64.30;;;24.02;;
73650;SDS011;61944;52.538;6.108;2023-04-16T03:45:51;58.58;;;23.17;;
73650;SDS011;61944;52.538;6.108;2023-04-16T03:48:16;50.20;;;21.52;;
73650;SDS011;61944;52.538;6.108;2023-04-16T03:50:45;60.13;;;25.95;;
73650;SDS011;61944;52.538;6.108;2023-04-16T03:53:14;50.92;;;22.48;;
73650;SDS011;61944;52.538;6.108;2023-04-16T03:55:40;63.72;;;26.95;;
73650;SDS011;61944;52.538;6.108;2023-04-16T03:58:05;50.88;;;22.73;;
73650;SDS011;61944;52.538;6.108;2023-04-16T04:00:31;72.50;;;28.48;;
73650;SDS011;61944;52.538;6.108;2023-04-16T04:02:56;69.72;;;27.42;;
73650;SDS011;61944;52.538;6.108;2023-04-16T04:05:22;64.85;;;26.33;;
73650;SDS011;61944;52.538;6.108;2023-04-16T04:07:47;60.63;;;24.58;;
73650;SDS011;61944;52.538;6.108;2023-04-16T04:10:12;68.68;;;27.38;;
73650;SDS011;61944;52.538;6.108;2023-04-16T04:12:38;56.28;;;25.02;;
73650;SDS011;61944;52.538;6.108;2023-04-16T04:15:03;56.50;;;25.75;;
73650;SDS011;61944;52.538;6.108;2023-04-16T04:17:29;54.67;;;24.83;;
73650;SDS011;61944;52.538;6.108;2023-04-16T04:19:54;64.03;;;26.27;;
73650;SDS011;61944;52.538;6.108;2023-04-16T04:22:20;59.10;;;26.27;;
73650;SDS011;61944;52.538;6.108;2023-04-16T04:24:45;70.00;;;27.95;;
73650;SDS011;61944;52.538;6.108;2023-04-16T04:27:10;54.35;;;23.95;;
73650;SDS011;61944;52.538;6.108;2023-04-16T04:29:36;57.63;;;24.38;;
73650;SDS011;61944;52.538;6.108;2023-04-16T04:32:01;47.75;;;21.60;;
73650;SDS011;61944;52.538;6.108;2023-04-16T04:34:27;53.78;;;23.83;;
73650;SDS011;61944;52.538;6.108;2023-04-16T04:36:52;55.40;;;23.30;;
73650;SDS011;61944;52.538;6.108;2023-04-16T04:39:17;45.50;;;22.00;;
73650;SDS011;61944;52.538;6.108;2023-04-16T04:41:45;53.53;;;22.27;;
73650;SDS011;61944;52.538;6.108;2023-04-16T04:44:11;60.20;;;26.38;;
73650;SDS011;61944;52.538;6.108;2023-04-16T04:46:36;55.00;;;24.83;;
73650;SDS011;61944;52.538;6.108;2023-04-16T04:49:02;56.80;;;24.50;;
73650;SDS011;61944;52.538;6.108;2023-04-16T04:51:27;57.80;;;24.60;;
73650;SDS011;61944;52.538;6.108;2023-04-16T04:53:52;54.65;;;24.60;;
73650;SDS011;61944;52.538;6.108;2023-04-16T04:56:18;66.35;;;27.40;;
73650;SDS011;61944;52.538;6.108;2023-04-16T04:58:43;73.18;;;29.10;;
73650;SDS011;61944;52.538;6.108;2023-04-16T05:01:08;53.08;;;24.10;;
73650;SDS011;61944;52.538;6.108;2023-04-16T05:03:34;53.22;;;23.42;;
73650;SDS011;61944;52.538;6.108;2023-04-16T05:06:00;54.45;;;25.20;;
73650;SDS011;61944;52.538;6.108;2023-04-16T05:08:25;68.65;;;27.30;;
73650;SDS011;61944;52.538;6.108;2023-04-16T05:10:51;65.70;;;24.90;;
73650;SDS011;61944;52.538;6.108;2023-04-16T05:13:16;57.10;;;26.75;;
73650;SDS011;61944;52.538;6.108;2023-04-16T05:15:41;63.83;;;25.13;;
73650;SDS011;61944;52.538;6.108;2023-04-16T05:18:08;72.22;;;29.85;;
73650;SDS011;61944;52.538;6.108;2023-04-16T05:20:33;57.35;;;25.50;;
73650;SDS011;61944;52.538;6.108;2023-04-16T05:22:59;75.07;;;30.65;;
73650;SDS011;61944;52.538;6.108;2023-04-16T05:25:24;70.50;;;30.92;;
73650;SDS011;61944;52.538;6.108;2023-04-16T05:27:50;59.92;;;28.08;;
73650;SDS011;61944;52.538;6.108;2023-04-16T05:30:15;68.18;;;29.20;;
73650;SDS011;61944;52.538;6.108;2023-04-16T05:32:40;74.18;;;28.85;;
73650;SDS011;61944;52.538;6.108;2023-04-16T05:35:06;71.35;;;28.70;;
73650;SDS011;61944;52.538;6.108;2023-04-16T05:37:31;63.30;;;26.77;;
73650;SDS011;61944;52.538;6.108;2023-04-16T05:39:57;62.05;;;26.42;;
73650;SDS011;61944;52.538;6.108;2023-04-16T05:42:22;75.55;;;29.83;;
73650;SDS011;61944;52.538;6.108;2023-04-16T05:44:49;72.07;;;30.20;;
73650;SDS011;61944;52.538;6.108;2023-04-16T05:47:14;67.30;;;28.80;;
73650;SDS011;61944;52.538;6.108;2023-04-16T05:49:41;79.25;;;30.40;;
73650;SDS011;61944;52.538;6.108;2023-04-16T05:52:06;72.25;;;30.90;;
73650;SDS011;61944;52.538;6.108;2023-04-16T05:54:32;84.43;;;30.80;;
73650;SDS011;61944;52.538;6.108;2023-04-16T05:56:57;77.50;;;31.40;;
73650;SDS011;61944;52.538;6.108;2023-04-16T05:59:25;90.60;;;33.40;;
73650;SDS011;61944;52.538;6.108;2023-04-16T06:01:50;80.55;;;32.08;;
73650;SDS011;61944;52.538;6.108;2023-04-16T06:04:16;78.03;;;33.28;;
73650;SDS011;61944;52.538;6.108;2023-04-16T06:06:41;77.07;;;31.00;;
73650;SDS011;61944;52.538;6.108;2023-04-16T06:09:07;70.38;;;29.05;;
73650;SDS011;61944;52.538;6.108;2023-04-16T06:11:32;78.78;;;32.75;;
73650;SDS011;61944;52.538;6.108;2023-04-16T06:13:58;83.53;;;32.85;;
73650;SDS011;61944;52.538;6.108;2023-04-16T06:16:23;80.22;;;30.70;;
73650;SDS011;61944;52.538;6.108;2023-04-16T06:18:48;66.80;;;28.08;;
73650;SDS011;61944;52.538;6.108;2023-04-16T06:21:14;68.95;;;28.65;;
73650;SDS011;61944;52.538;6.108;2023-04-16T06:23:39;76.43;;;30.65;;
73650;SDS011;61944;52.538;6.108;2023-04-16T06:26:05;69.47;;;29.55;;
73650;SDS011;61944;52.538;6.108;2023-04-16T06:28:30;84.95;;;32.47;;
73650;SDS011;61944;52.538;6.108;2023-04-16T06:30:56;74.18;;;29.50;;
73650;SDS011;61944;52.538;6.108;2023-04-16T06:33:21;70.45;;;29.65;;
73650;SDS011;61944;52.538;6.108;2023-04-16T06:35:47;89.05;;;33.13;;
73650;SDS011;61944;52.538;6.108;2023-04-16T06:38:12;72.90;;;30.92;;
73650;SDS011;61944;52.538;6.108;2023-04-16T06:40:38;71.13;;;31.02;;
73650;SDS011;61944;52.538;6.108;2023-04-16T06:43:04;76.75;;;30.00;;
73650;SDS011;61944;52.538;6.108;2023-04-16T06:45:29;76.50;;;32.53;;
73650;SDS011;61944;52.538;6.108;2023-04-16T06:47:55;78.57;;;29.80;;
73650;SDS011;61944;52.538;6.108;2023-04-16T06:50:22;78.50;;;33.22;;
73650;SDS011;61944;52.538;6.108;2023-04-16T06:52:50;81.50;;;32.45;;
73650;SDS011;61944;52.538;6.108;2023-04-16T06:55:22;79.07;;;30.02;;
73650;SDS011;61944;52.538;6.108;2023-04-16T06:57:47;73.45;;;28.05;;
73650;SDS011;61944;52.538;6.108;2023-04-16T07:00:12;75.32;;;30.80;;
73650;SDS011;61944;52.538;6.108;2023-04-16T07:02:38;73.40;;;29.92;;
73650;SDS011;61944;52.538;6.108;2023-04-16T07:05:03;81.13;;;30.95;;
73650;SDS011;61944;52.538;6.108;2023-04-16T07:07:29;75.78;;;28.70;;
73650;SDS011;61944;52.538;6.108;2023-04-16T07:09:55;77.07;;;30.20;;
73650;SDS011;61944;52.538;6.108;2023-04-16T07:12:20;83.45;;;29.95;;
73650;SDS011;61944;52.538;6.108;2023-04-16T07:14:45;77.25;;;30.60;;
73650;SDS011;61944;52.538;6.108;2023-04-16T07:17:11;81.63;;;28.85;;
73650;SDS011;61944;52.538;6.108;2023-04-16T07:19:36;68.60;;;29.48;;
73650;SDS011;61944;52.538;6.108;2023-04-16T07:22:02;70.38;;;28.25;;
73650;SDS011;61944;52.538;6.108;2023-04-16T07:24:27;65.93;;;26.98;;
73650;SDS011;61944;52.538;6.108;2023-04-16T07:26:53;77.70;;;31.08;;
73650;SDS011;61944;52.538;6.108;2023-04-16T07:29:18;81.60;;;32.35;;
73650;SDS011;61944;52.538;6.108;2023-04-16T07:31:44;75.43;;;31.30;;
73650;SDS011;61944;52.538;6.108;2023-04-16T07:34:10;65.78;;;29.17;;
73650;SDS011;61944;52.538;6.108;2023-04-16T07:36:35;65.05;;;26.40;;
73650;SDS011;61944;52.538;6.108;2023-04-16T07:39:00;74.13;;;31.52;;
73650;SDS011;61944;52.538;6.108;2023-04-16T07:41:26;65.57;;;28.67;;
73650;SDS011;61944;52.538;6.108;2023-04-16T07:43:53;78.82;;;28.98;;
73650;SDS011;61944;52.538;6.108;2023-04-16T07:46:19;66.43;;;28.27;;
73650;SDS011;61944;52.538;6.108;2023-04-16T07:48:44;86.90;;;32.88;;
73650;SDS011;61944;52.538;6.108;2023-04-16T07:51:10;74.63;;;29.27;;
73650;SDS011;61944;52.538;6.108;2023-04-16T07:53:35;74.80;;;30.10;;
73650;SDS011;61944;52.538;6.108;2023-04-16T07:56:01;75.90;;;31.08;;
73650;SDS011;61944;52.538;6.108;2023-04-16T07:58:26;87.78;;;32.22;;
73650;SDS011;61944;52.538;6.108;2023-04-16T08:00:51;90.97;;;35.45;;
73650;SDS011;61944;52.538;6.108;2023-04-16T08:03:17;84.22;;;33.47;;
73650;SDS011;61944;52.538;6.108;2023-04-16T08:05:42;78.40;;;32.42;;
73650;SDS011;61944;52.538;6.108;2023-04-16T08:08:07;66.15;;;27.67;;
73650;SDS011;61944;52.538;6.108;2023-04-16T08:10:33;66.40;;;28.15;;
73650;SDS011;61944;52.538;6.108;2023-04-16T08:12:59;75.60;;;28.27;;
73650;SDS011;61944;52.538;6.108;2023-04-16T08:15:25;58.85;;;27.02;;
73650;SDS011;61944;52.538;6.108;2023-04-16T08:17:51;63.60;;;26.63;;
73650;SDS011;61944;52.538;6.108;2023-04-16T08:20:20;59.63;;;24.90;;
73650;SDS011;61944;52.538;6.108;2023-04-16T08:22:45;58.83;;;26.55;;
73650;SDS011;61944;52.538;6.108;2023-04-16T08:25:10;62.33;;;28.10;;
73650;SDS011;61944;52.538;6.108;2023-04-16T08:27:36;61.90;;;25.33;;
73650;SDS011;61944;52.538;6.108;2023-04-16T08:30:01;61.33;;;26.17;;
73650;SDS011;61944;52.538;6.108;2023-04-16T08:32:27;58.13;;;25.13;;
73650;SDS011;61944;52.538;6.108;2023-04-16T08:34:53;63.55;;;26.23;;
73650;SDS011;61944;52.538;6.108;2023-04-16T08:37:18;61.55;;;27.45;;
73650;SDS011;61944;52.538;6.108;2023-04-16T08:39:43;65.22;;;28.13;;
73650;SDS011;61944;52.538;6.108;2023-04-16T08:42:12;59.50;;;27.10;;
73650;SDS011;61944;52.538;6.108;2023-04-16T08:44:43;58.28;;;25.65;;
73650;SDS011;61944;52.538;6.108;2023-04-16T08:47:13;54.55;;;23.50;;
73650;SDS011;61944;52.538;6.108;2023-04-16T08:49:44;59.10;;;26.33;;
73650;SDS011;61944;52.538;6.108;2023-04-16T08:52:13;65.13;;;28.23;;
73650;SDS011;61944;52.538;6.108;2023-04-16T08:54:45;55.22;;;24.73;;
73650;SDS011;61944;52.538;6.108;2023-04-16T08:57:18;51.90;;;26.70;;
73650;SDS011;61944;52.538;6.108;2023-04-16T08:59:45;52.05;;;23.48;;
73650;SDS011;61944;52.538;6.108;2023-04-16T09:02:11;52.03;;;22.92;;
73650;SDS011;61944;52.538;6.108;2023-04-16T09:04:37;51.22;;;24.13;;
73650;SDS011;61944;52.538;6.108;2023-04-16T09:07:04;63.97;;;25.00;;
73650;SDS011;61944;52.538;6.108;2023-04-16T09:09:32;57.47;;;24.33;;
73650;SDS011;61944;52.538;6.108;2023-04-16T09:11:58;49.47;;;20.67;;
73650;SDS011;61944;52.538;6.108;2023-04-16T09:14:23;49.65;;;23.27;;
73650;SDS011;61944;52.538;6.108;2023-04-16T09:16:49;62.67;;;26.30;;
73650;SDS011;61944;52.538;6.108;2023-04-16T09:19:17;55.25;;;26.40;;
73650;SDS011;61944;52.538;6.108;2023-04-16T09:21:44;54.67;;;23.48;;
73650;SDS011;61944;52.538;6.108;2023-04-16T09:24:10;52.25;;;22.30;;
73650;SDS011;61944;52.538;6.108;2023-04-16T09:26:36;54.40;;;23.55;;
73650;SDS011;61944;52.538;6.108;2023-04-16T09:29:01;54.35;;;23.33;;
73650;SDS011;61944;52.538;6.108;2023-04-16T09:31:27;59.60;;;24.25;;
73650;SDS011;61944;52.538;6.108;2023-04-16T09:34:13;54.65;;;23.73;;
73650;SDS011;61944;52.538;6.108;2023-04-16T09:36:38;56.08;;;24.55;;
73650;SDS011;61944;52.538;6.108;2023-04-16T09:39:03;54.78;;;21.00;;
73650;SDS011;61944;52.538;6.108;2023-04-16T09:41:29;49.72;;;23.30;;
73650;SDS011;61944;52.538;6.108;2023-04-16T09:43:57;47.78;;;23.90;;
73650;SDS011;61944;52.538;6.108;2023-04-16T09:48:55;51.58;;;22.92;;
73650;SDS011;61944;52.538;6.108;2023-04-16T09:51:20;62.13;;;24.63;;
73650;SDS011;61944;52.538;6.108;2023-04-16T09:53:45;51.42;;;24.30;;
73650;SDS011;61944;52.538;6.108;2023-04-16T09:56:11;54.63;;;23.92;;
73650;SDS011;61944;52.538;6.108;2023-04-16T09:58:37;49.58;;;21.40;;
73650;SDS011;61944;52.538;6.108;2023-04-16T10:03:28;50.25;;;22.50;;
73650;SDS011;61944;52.538;6.108;2023-04-16T10:05:58;56.15;;;24.50;;
73650;SDS011;61944;52.538;6.108;2023-04-16T10:08:41;51.25;;;20.95;;
73650;SDS011;61944;52.538;6.108;2023-04-16T10:11:17;46.20;;;22.08;;
73650;SDS011;61944;52.538;6.108;2023-04-16T10:13:43;45.45;;;21.88;;
73650;SDS011;61944;52.538;6.108;2023-04-16T10:16:09;60.45;;;23.55;;
73650;SDS011;61944;52.538;6.108;2023-04-16T10:18:36;47.67;;;22.17;;
73650;SDS011;61944;52.538;6.108;2023-04-16T10:21:03;43.28;;;21.80;;
73650;SDS011;61944;52.538;6.108;2023-04-16T10:23:29;45.75;;;22.67;;
73650;SDS011;61944;52.538;6.108;2023-04-16T10:25:56;48.17;;;23.92;;
73650;SDS011;61944;52.538;6.108;2023-04-16T10:28:22;52.78;;;23.08;;
73650;SDS011;61944;52.538;6.108;2023-04-16T10:30:48;57.28;;;25.40;;
73650;SDS011;61944;52.538;6.108;2023-04-16T10:33:22;40.35;;;21.55;;
73650;SDS011;61944;52.538;6.108;2023-04-16T10:35:51;50.15;;;22.45;;
73650;SDS011;61944;52.538;6.108;2023-04-16T10:38:30;42.80;;;21.65;;
73650;SDS011;61944;52.538;6.108;2023-04-16T10:41:01;47.47;;;21.30;;
73650;SDS011;61944;52.538;6.108;2023-04-16T10:43:28;48.67;;;23.00;;
73650;SDS011;61944;52.538;6.108;2023-04-16T10:45:54;49.83;;;22.08;;
73650;SDS011;61944;52.538;6.108;2023-04-16T10:48:19;51.88;;;22.58;;
73650;SDS011;61944;52.538;6.108;2023-04-16T10:50:55;45.53;;;21.98;;
73650;SDS011;61944;52.538;6.108;2023-04-16T10:58:27;50.78;;;22.08;;
73650;SDS011;61944;52.538;6.108;2023-04-16T11:00:53;48.30;;;22.15;;
73650;SDS011;61944;52.538;6.108;2023-04-16T11:03:19;48.50;;;22.95;;
73650;SDS011;61944;52.538;6.108;2023-04-16T11:05:44;49.17;;;22.08;;
73650;SDS011;61944;52.538;6.108;2023-04-16T11:08:13;47.90;;;21.00;;
73650;SDS011;61944;52.538;6.108;2023-04-16T11:10:42;39.83;;;20.25;;
73650;SDS011;61944;52.538;6.108;2023-04-16T11:13:08;51.63;;;21.73;;
73650;SDS011;61944;52.538;6.108;2023-04-16T11:15:36;46.53;;;19.75;;
73650;SDS011;61944;52.538;6.108;2023-04-16T11:18:02;49.30;;;20.05;;
73650;SDS011;61944;52.538;6.108;2023-04-16T11:20:28;48.70;;;20.25;;
73650;SDS011;61944;52.538;6.108;2023-04-16T11:22:54;44.17;;;21.02;;
73650;SDS011;61944;52.538;6.108;2023-04-16T11:25:24;47.33;;;21.00;;
73650;SDS011;61944;52.538;6.108;2023-04-16T11:27:51;48.13;;;20.25;;
73650;SDS011;61944;52.538;6.108;2023-04-16T11:30:18;40.05;;;19.65;;
73650;SDS011;61944;52.538;6.108;2023-04-16T11:32:51;46.90;;;19.42;;
73650;SDS011;61944;52.538;6.108;2023-04-16T11:35:17;46.40;;;20.02;;
73650;SDS011;61944;52.538;6.108;2023-04-16T11:37:44;51.40;;;21.25;;
73650;SDS011;61944;52.538;6.108;2023-04-16T11:40:10;43.83;;;20.92;;
73650;SDS011;61944;52.538;6.108;2023-04-16T11:42:37;48.25;;;19.13;;
73650;SDS011;61944;52.538;6.108;2023-04-16T11:45:09;44.80;;;20.10;;
73650;SDS011;61944;52.538;6.108;2023-04-16T11:50:19;47.00;;;21.02;;
73650;SDS011;61944;52.538;6.108;2023-04-16T11:52:49;45.00;;;20.55;;
73650;SDS011;61944;52.538;6.108;2023-04-16T11:55:16;45.53;;;19.02;;
73650;SDS011;61944;52.538;6.108;2023-04-16T11:57:41;42.80;;;19.10;;
73650;SDS011;61944;52.538;6.108;2023-04-16T12:00:07;42.40;;;18.45;;
73650;SDS011;61944;52.538;6.108;2023-04-16T12:05:24;40.63;;;18.02;;
73650;SDS011;61944;52.538;6.108;2023-04-16T12:07:58;45.70;;;18.95;;
73650;SDS011;61944;52.538;6.108;2023-04-16T12:10:25;44.22;;;20.10;;
73650;SDS011;61944;52.538;6.108;2023-04-16T12:12:51;38.63;;;18.90;;
73650;SDS011;61944;52.538;6.108;2023-04-16T12:15:16;42.75;;;20.27;;
73650;SDS011;61944;52.538;6.108;2023-04-16T12:17:42;41.10;;;18.15;;
73650;SDS011;61944;52.538;6.108;2023-04-16T12:20:08;35.60;;;20.13;;
73650;SDS011;61944;52.538;6.108;2023-04-16T12:22:36;39.00;;;17.92;;
73650;SDS011;61944;52.538;6.108;2023-04-16T12:25:07;36.67;;;19.48;;
73650;SDS011;61944;52.538;6.108;2023-04-16T12:30:07;38.45;;;19.77;;
73650;SDS011;61944;52.538;6.108;2023-04-16T12:32:33;40.08;;;18.70;;
73650;SDS011;61944;52.538;6.108;2023-04-16T12:34:58;37.65;;;20.25;;
73650;SDS011;61944;52.538;6.108;2023-04-16T12:37:24;38.92;;;20.67;;
73650;SDS011;61944;52.538;6.108;2023-04-16T12:39:49;43.13;;;19.85;;
73650;SDS011;61944;52.538;6.108;2023-04-16T12:42:14;45.70;;;22.60;;
73650;SDS011;61944;52.538;6.108;2023-04-16T12:44:40;41.85;;;19.70;;
73650;SDS011;61944;52.538;6.108;2023-04-16T12:47:05;41.20;;;20.23;;
73650;SDS011;61944;52.538;6.108;2023-04-16T12:49:31;41.58;;;19.73;;
73650;SDS011;61944;52.538;6.108;2023-04-16T12:51:56;40.53;;;20.92;;
73650;SDS011;61944;52.538;6.108;2023-04-16T12:54:21;43.75;;;19.75;;
73650;SDS011;61944;52.538;6.108;2023-04-16T12:56:47;43.40;;;20.67;;
73650;SDS011;61944;52.538;6.108;2023-04-16T12:59:12;39.70;;;19.42;;
73650;SDS011;61944;52.538;6.108;2023-04-16T13:01:37;49.85;;;20.30;;
73650;SDS011;61944;52.538;6.108;2023-04-16T13:04:03;37.90;;;18.55;;
73650;SDS011;61944;52.538;6.108;2023-04-16T13:06:29;42.53;;;20.80;;
73650;SDS011;61944;52.538;6.108;2023-04-16T13:08:56;36.50;;;20.35;;
73650;SDS011;61944;52.538;6.108;2023-04-16T13:11:22;40.17;;;20.15;;
73650;SDS011;61944;52.538;6.108;2023-04-16T13:13:47;49.15;;;22.48;;
73650;SDS011;61944;52.538;6.108;2023-04-16T13:16:12;38.53;;;20.77;;
73650;SDS011;61944;52.538;6.108;2023-04-16T13:18:38;43.25;;;19.52;;
73650;SDS011;61944;52.538;6.108;2023-04-16T13:21:04;36.08;;;18.90;;
73650;SDS011;61944;52.538;6.108;2023-04-16T13:23:29;42.35;;;18.95;;
73650;SDS011;61944;52.538;6.108;2023-04-16T13:25:55;37.95;;;18.92;;
73650;SDS011;61944;52.538;6.108;2023-04-16T13:28:20;36.75;;;18.92;;
73650;SDS011;61944;52.538;6.108;2023-04-16T13:30:46;38.33;;;19.80;;
73650;SDS011;61944;52.538;6.108;2023-04-16T13:33:11;36.72;;;18.88;;
73650;SDS011;61944;52.538;6.108;2023-04-16T13:35:37;41.83;;;19.70;;
73650;SDS011;61944;52.538;6.108;2023-04-16T13:38:03;39.13;;;18.13;;
73650;SDS011;61944;52.538;6.108;2023-04-16T13:40:28;42.30;;;19.80;;
73650;SDS011;61944;52.538;6.108;2023-04-16T13:42:54;33.88;;;18.55;;
73650;SDS011;61944;52.538;6.108;2023-04-16T13:45:19;41.53;;;19.05;;
73650;SDS011;61944;52.538;6.108;2023-04-16T13:47:45;47.40;;;18.92;;
73650;SDS011;61944;52.538;6.108;2023-04-16T13:50:10;44.05;;;19.15;;
73650;SDS011;61944;52.538;6.108;2023-04-16T13:52:36;49.78;;;19.38;;
73650;SDS011;61944;52.538;6.108;2023-04-16T13:55:01;39.60;;;20.67;;
73650;SDS011;61944;52.538;6.108;2023-04-16T13:57:27;36.67;;;17.80;;
73650;SDS011;61944;52.538;6.108;2023-04-16T13:59:53;45.08;;;19.98;;
73650;SDS011;61944;52.538;6.108;2023-04-16T14:02:19;36.22;;;17.98;;
73650;SDS011;61944;52.538;6.108;2023-04-16T14:04:46;46.95;;;20.90;;
73650;SDS011;61944;52.538;6.108;2023-04-16T14:07:12;36.42;;;19.80;;
73650;SDS011;61944;52.538;6.108;2023-04-16T14:09:38;37.75;;;19.08;;
73650;SDS011;61944;52.538;6.108;2023-04-16T14:12:04;37.25;;;19.23;;
73650;SDS011;61944;52.538;6.108;2023-04-16T14:14:30;38.05;;;18.38;;
73650;SDS011;61944;52.538;6.108;2023-04-16T14:16:56;38.42;;;19.63;;
73650;SDS011;61944;52.538;6.108;2023-04-16T14:19:22;39.30;;;18.63;;
73650;SDS011;61944;52.538;6.108;2023-04-16T14:21:47;33.90;;;19.58;;
73650;SDS011;61944;52.538;6.108;2023-04-16T14:24:13;35.92;;;18.02;;
73650;SDS011;61944;52.538;6.108;2023-04-16T14:26:38;36.92;;;19.95;;
73650;SDS011;61944;52.538;6.108;2023-04-16T14:29:03;45.33;;;18.30;;
73650;SDS011;61944;52.538;6.108;2023-04-16T14:31:29;41.88;;;20.02;;
73650;SDS011;61944;52.538;6.108;2023-04-16T14:33:54;38.72;;;19.83;;